sensor_id;sensor_type;location;lat;lon;timestamp;pressure;altitude;pressure_sealevel;temperature;humidity
51287;BME280;37364;46.974;18.916;2023-08-06T00:01:01;154988.56;;;18.38;100.00
51287;BME280;37364;46.974;18.916;2023-08-06T00:03:32;154982.06;;;18.35;100.00
51287;BME280;37364;46.974;18.916;2023-08-06T00:06:04;154965.16;;;18.29;100.00
51287;BME280;37364;46.974;18.916;2023-08-06T00:08:34;154957.34;;;18.26;100.00
51287;BME280;37364;46.974;18.916;2023-08-06T00:11:07;154957.34;;;18.26;100.00
51287;BME280;37364;46.974;18.916;2023-08-06T00:13:37;154962.53;;;18.28;100.00
51287;BME280;37364;46.974;18.916;2023-08-06T00:16:11;154997.69;;;18.42;100.00
51287;BME280;37364;46.974;18.916;2023-08-06T00:18:41;154980.78;;;18.35;100.00
51287;BME280;37364;46.974;18.916;2023-08-06T00:21:12;154986.00;;;18.37;100.00
51287;BME280;37364;46.974;18.916;2023-08-06T00:23:42;154988.56;;;18.38;100.00
51287;BME280;37364;46.974;18.916;2023-08-06T00:26:15;154975.56;;;18.33;100.00
51287;BME280;37364;46.974;18.916;2023-08-06T00:28:45;154971.66;;;18.31;100.00
51287;BME280;37364;46.974;18.916;2023-08-06T00:31:15;154956.06;;;18.25;100.00
51287;BME280;37364;46.974;18.916;2023-08-06T00:33:45;154969.03;;;18.30;100.00
51287;BME280;37364;46.974;18.916;2023-08-06T00:36:15;154976.88;;;18.33;100.00
51287;BME280;37364;46.974;18.916;2023-08-06T00:38:45;154989.91;;;18.38;100.00
51287;BME280;37364;46.974;18.916;2023-08-06T00:41:18;154988.56;;;18.38;100.00
51287;BME280;37364;46.974;18.916;2023-08-06T00:43:48;154976.88;;;18.33;100.00
51287;BME280;37364;46.974;18.916;2023-08-06T00:46:19;154959.91;;;18.27;100.00
51287;BME280;37364;46.974;18.916;2023-08-06T00:48:50;154919.59;;;18.11;100.00
51287;BME280;37364;46.974;18.916;2023-08-06T00:51:22;154922.22;;;18.12;100.00
51287;BME280;37364;46.974;18.916;2023-08-06T00:53:52;154933.91;;;18.16;100.00
51287;BME280;37364;46.974;18.916;2023-08-06T00:56:25;154954.72;;;18.25;100.00
51287;BME280;37364;46.974;18.916;2023-08-06T00:58:55;154949.50;;;18.23;100.00
51287;BME280;37364;46.974;18.916;2023-08-06T01:01:25;154957.34;;;18.26;100.00
51287;BME280;37364;46.974;18.916;2023-08-06T01:03:56;154954.72;;;18.25;100.00
51287;BME280;37364;46.974;18.916;2023-08-06T01:06:35;154941.72;;;18.20;100.00
51287;BME280;37364;46.974;18.916;2023-08-06T01:09:21;154963.84;;;18.28;100.00
51287;BME280;37364;46.974;18.916;2023-08-06T01:12:06;154927.41;;;18.14;100.00
51287;BME280;37364;46.974;18.916;2023-08-06T01:14:42;154937.81;;;18.18;100.00
51287;BME280;37364;46.974;18.916;2023-08-06T01:17:16;154952.13;;;18.24;100.00
51287;BME280;37364;46.974;18.916;2023-08-06T01:19:46;154926.13;;;18.13;100.00
51287;BME280;37364;46.974;18.916;2023-08-06T01:22:19;154928.69;;;18.14;100.00
51287;BME280;37364;46.974;18.916;2023-08-06T01:24:50;154888.38;;;17.98;100.00
51287;BME280;37364;46.974;18.916;2023-08-06T01:27:28;154909.19;;;18.07;100.00
51287;BME280;37364;46.974;18.916;2023-08-06T01:30:05;154920.91;;;18.11;100.00
51287;BME280;37364;46.974;18.916;2023-08-06T01:32:39;154917.00;;;18.10;100.00
51287;BME280;37364;46.974;18.916;2023-08-06T01:35:15;154909.19;;;18.07;100.00
51287;BME280;37364;46.974;18.916;2023-08-06T01:37:48;154905.25;;;18.05;100.00
51287;BME280;37364;46.974;18.916;2023-08-06T01:40:19;154898.78;;;18.03;100.00
51287;BME280;37364;46.974;18.916;2023-08-06T01:42:49;154910.50;;;18.07;100.00
51287;BME280;37364;46.974;18.916;2023-08-06T01:45:19;154907.88;;;18.06;100.00
51287;BME280;37364;46.974;18.916;2023-08-06T01:47:50;154919.59;;;18.11;100.00
51287;BME280;37364;46.974;18.916;2023-08-06T01:50:20;154924.78;;;18.13;100.00
51287;BME280;37364;46.974;18.916;2023-08-06T01:52:54;154907.88;;;18.06;100.00
51287;BME280;37364;46.974;18.916;2023-08-06T01:55:24;154905.25;;;18.05;100.00
51287;BME280;37364;46.974;18.916;2023-08-06T01:57:57;154918.28;;;18.10;100.00
51287;BME280;37364;46.974;18.916;2023-08-06T02:00:28;154911.81;;;18.08;100.00
51287;BME280;37364;46.974;18.916;2023-08-06T02:02:58;154932.63;;;18.16;100.00
51287;BME280;37364;46.974;18.916;2023-08-06T02:05:28;154910.50;;;18.07;100.00
51287;BME280;37364;46.974;18.916;2023-08-06T02:08:01;154920.91;;;18.11;100.00
51287;BME280;37364;46.974;18.916;2023-08-06T02:10:31;154923.50;;;18.12;100.00
51287;BME280;37364;46.974;18.916;2023-08-06T02:13:01;154933.91;;;18.16;100.00
51287;BME280;37364;46.974;18.916;2023-08-06T02:15:32;154950.84;;;18.23;100.00
51287;BME280;37364;46.974;18.916;2023-08-06T02:18:03;154914.38;;;18.09;100.00
51287;BME280;37364;46.974;18.916;2023-08-06T02:20:33;154913.09;;;18.08;100.00
51287;BME280;37364;46.974;18.916;2023-08-06T02:23:06;154894.84;;;18.01;100.00
51287;BME280;37364;46.974;18.916;2023-08-06T02:25:37;154884.44;;;17.97;100.00
51287;BME280;37364;46.974;18.916;2023-08-06T02:28:07;154875.34;;;17.93;100.00
51287;BME280;37364;46.974;18.916;2023-08-06T02:30:39;154880.59;;;17.95;100.00
51287;BME280;37364;46.974;18.916;2023-08-06T02:33:11;154884.44;;;17.97;100.00
51287;BME280;37364;46.974;18.916;2023-08-06T02:35:41;154888.38;;;17.98;100.00
51287;BME280;37364;46.974;18.916;2023-08-06T02:38:14;154896.19;;;18.02;100.00
51287;BME280;37364;46.974;18.916;2023-08-06T02:40:45;154877.97;;;17.94;100.00
51287;BME280;37364;46.974;18.916;2023-08-06T02:43:16;154883.16;;;17.96;100.00
51287;BME280;37364;46.974;18.916;2023-08-06T02:45:46;154877.97;;;17.94;100.00
51287;BME280;37364;46.974;18.916;2023-08-06T02:48:16;154879.25;;;17.95;100.00
51287;BME280;37364;46.974;18.916;2023-08-06T02:50:47;154885.78;;;17.97;100.00
51287;BME280;37364;46.974;18.916;2023-08-06T02:53:19;154861.06;;;17.88;100.00
51287;BME280;37364;46.974;18.916;2023-08-06T02:55:50;154851.94;;;17.84;100.00
51287;BME280;37364;46.974;18.916;2023-08-06T02:58:26;154854.53;;;17.85;100.00
51287;BME280;37364;46.974;18.916;2023-08-06T03:01:19;154858.44;;;17.87;100.00
51287;BME280;37364;46.974;18.916;2023-08-06T03:03:56;154871.47;;;17.92;100.00
51287;BME280;37364;46.974;18.916;2023-08-06T03:06:33;154879.25;;;17.95;100.00
51287;BME280;37364;46.974;18.916;2023-08-06T03:09:06;154848.00;;;17.83;100.00
51287;BME280;37364;46.974;18.916;2023-08-06T03:11:37;154819.34;;;17.71;100.00
51287;BME280;37364;46.974;18.916;2023-08-06T03:14:11;154811.56;;;17.68;100.00
51287;BME280;37364;46.974;18.916;2023-08-06T03:16:43;154792.06;;;17.61;100.00
51287;BME280;37364;46.974;18.916;2023-08-06T03:19:16;154781.66;;;17.56;100.00
51287;BME280;37364;46.974;18.916;2023-08-06T03:21:47;154741.34;;;17.41;100.00
51287;BME280;37364;46.974;18.916;2023-08-06T03:24:20;154729.59;;;17.36;100.00
51287;BME280;37364;46.974;18.916;2023-08-06T03:26:51;154672.41;;;17.13;100.00
51287;BME280;37364;46.974;18.916;2023-08-06T03:29:23;154668.50;;;17.12;100.00
51287;BME280;37364;46.974;18.916;2023-08-06T03:31:55;154689.28;;;17.20;100.00
51287;BME280;37364;46.974;18.916;2023-08-06T03:34:26;154676.25;;;17.15;100.00
51287;BME280;37364;46.974;18.916;2023-08-06T03:36:56;154672.41;;;17.13;100.00
51287;BME280;37364;46.974;18.916;2023-08-06T03:39:30;154673.69;;;17.14;100.00
51287;BME280;37364;46.974;18.916;2023-08-06T03:42:01;154684.09;;;17.18;100.00
51287;BME280;37364;46.974;18.916;2023-08-06T03:44:31;154691.91;;;17.21;100.00
51287;BME280;37364;46.974;18.916;2023-08-06T03:47:01;154691.91;;;17.21;100.00
51287;BME280;37364;46.974;18.916;2023-08-06T03:49:32;154702.31;;;17.25;100.00
51287;BME280;37364;46.974;18.916;2023-08-06T03:52:04;154699.69;;;17.24;100.00
51287;BME280;37364;46.974;18.916;2023-08-06T03:54:37;154703.59;;;17.26;100.00
51287;BME280;37364;46.974;18.916;2023-08-06T03:57:07;154715.28;;;17.30;100.00
51287;BME280;37364;46.974;18.916;2023-08-06T03:59:38;154716.63;;;17.31;100.00
51287;BME280;37364;46.974;18.916;2023-08-06T04:02:16;154733.50;;;17.37;100.00
51287;BME280;37364;46.974;18.916;2023-08-06T04:04:46;154729.59;;;17.36;100.00
51287;BME280;37364;46.974;18.916;2023-08-06T04:07:16;154717.91;;;17.31;100.00
51287;BME280;37364;46.974;18.916;2023-08-06T04:09:57;154708.81;;;17.28;100.00
51287;BME280;37364;46.974;18.916;2023-08-06T04:12:28;154706.19;;;17.27;100.00
51287;BME280;37364;46.974;18.916;2023-08-06T04:14:59;154702.31;;;17.25;100.00
51287;BME280;37364;46.974;18.916;2023-08-06T04:17:30;154712.72;;;17.29;100.00
51287;BME280;37364;46.974;18.916;2023-08-06T04:20:00;154703.59;;;17.26;100.00
51287;BME280;37364;46.974;18.916;2023-08-06T04:22:30;154678.88;;;17.16;100.00
51287;BME280;37364;46.974;18.916;2023-08-06T04:25:04;154685.38;;;17.18;100.00
51287;BME280;37364;46.974;18.916;2023-08-06T04:27:34;154619.06;;;16.92;100.00
51287;BME280;37364;46.974;18.916;2023-08-06T04:30:10;154637.28;;;16.99;100.00
51287;BME280;37364;46.974;18.916;2023-08-06T04:32:41;154638.59;;;17.00;100.00
51287;BME280;37364;46.974;18.916;2023-08-06T04:35:11;154645.06;;;17.03;100.00
51287;BME280;37364;46.974;18.916;2023-08-06T04:37:42;154639.88;;;17.00;100.00
51287;BME280;37364;46.974;18.916;2023-08-06T04:40:15;154617.78;;;16.92;100.00
51287;BME280;37364;46.974;18.916;2023-08-06T04:42:45;154637.28;;;16.99;100.00
51287;BME280;37364;46.974;18.916;2023-08-06T04:45:16;154646.34;;;17.03;100.00
51287;BME280;37364;46.974;18.916;2023-08-06T04:47:47;154637.28;;;16.99;100.00
51287;BME280;37364;46.974;18.916;2023-08-06T04:50:17;154658.09;;;17.08;100.00
51287;BME280;37364;46.974;18.916;2023-08-06T04:52:47;154641.16;;;17.01;100.00
51287;BME280;37364;46.974;18.916;2023-08-06T04:55:20;154650.28;;;17.05;100.00
51287;BME280;37364;46.974;18.916;2023-08-06T04:57:50;154665.88;;;17.11;100.00
51287;BME280;37364;46.974;18.916;2023-08-06T05:00:20;154685.38;;;17.18;100.00
51287;BME280;37364;46.974;18.916;2023-08-06T05:02:52;154668.50;;;17.12;100.00
51287;BME280;37364;46.974;18.916;2023-08-06T05:05:22;154688.00;;;17.19;100.00
51287;BME280;37364;46.974;18.916;2023-08-06T05:07:54;154678.88;;;17.16;100.00
51287;BME280;37364;46.974;18.916;2023-08-06T05:10:28;154650.28;;;17.05;100.00
51287;BME280;37364;46.974;18.916;2023-08-06T05:12:58;154654.19;;;17.06;100.00
51287;BME280;37364;46.974;18.916;2023-08-06T05:15:28;154673.69;;;17.14;100.00
51287;BME280;37364;46.974;18.916;2023-08-06T05:18:00;154673.69;;;17.14;100.00
51287;BME280;37364;46.974;18.916;2023-08-06T05:20:30;154674.97;;;17.14;100.00
51287;BME280;37364;46.974;18.916;2023-08-06T05:23:00;154686.72;;;17.19;100.00
51287;BME280;37364;46.974;18.916;2023-08-06T05:25:34;154688.00;;;17.19;100.00
51287;BME280;37364;46.974;18.916;2023-08-06T05:28:04;154671.06;;;17.13;100.00
51287;BME280;37364;46.974;18.916;2023-08-06T05:30:39;154671.06;;;17.13;100.00
51287;BME280;37364;46.974;18.916;2023-08-06T05:33:09;154660.66;;;17.09;100.00
51287;BME280;37364;46.974;18.916;2023-08-06T05:35:41;154639.88;;;17.00;100.00
51287;BME280;37364;46.974;18.916;2023-08-06T05:38:11;154654.19;;;17.06;100.00
51287;BME280;37364;46.974;18.916;2023-08-06T05:40:44;154598.28;;;16.84;100.00
51287;BME280;37364;46.974;18.916;2023-08-06T05:43:14;154599.56;;;16.85;100.00
51287;BME280;37364;46.974;18.916;2023-08-06T05:45:45;154621.66;;;16.93;100.00
51287;BME280;37364;46.974;18.916;2023-08-06T05:48:16;154596.94;;;16.84;100.00
51287;BME280;37364;46.974;18.916;2023-08-06T05:50:46;154642.50;;;17.02;100.00
51287;BME280;37364;46.974;18.916;2023-08-06T05:53:16;154602.19;;;16.86;100.00
51287;BME280;37364;46.974;18.916;2023-08-06T05:55:49;154642.50;;;17.02;100.00
51287;BME280;37364;46.974;18.916;2023-08-06T05:58:19;154629.47;;;16.96;100.00
51287;BME280;37364;46.974;18.916;2023-08-06T06:00:51;154621.66;;;16.93;100.00
51287;BME280;37364;46.974;18.916;2023-08-06T06:03:23;154639.88;;;17.00;100.00
51287;BME280;37364;46.974;18.916;2023-08-06T06:05:54;154660.66;;;17.09;100.00
51287;BME280;37364;46.974;18.916;2023-08-06T06:08:24;154655.47;;;17.07;100.00
51287;BME280;37364;46.974;18.916;2023-08-06T06:10:56;154659.38;;;17.08;100.00
51287;BME280;37364;46.974;18.916;2023-08-06T06:13:27;154632.09;;;16.97;100.00
51287;BME280;37364;46.974;18.916;2023-08-06T06:15:58;154613.88;;;16.90;100.00
51287;BME280;37364;46.974;18.916;2023-08-06T06:18:28;154632.09;;;16.97;100.00
51287;BME280;37364;46.974;18.916;2023-08-06T06:20:58;154620.34;;;16.93;100.00
51287;BME280;37364;46.974;18.916;2023-08-06T06:23:28;154600.84;;;16.85;100.00
51287;BME280;37364;46.974;18.916;2023-08-06T06:26:01;154593.09;;;16.82;100.00
51287;BME280;37364;46.974;18.916;2023-08-06T06:28:31;154578.72;;;16.76;100.00
51287;BME280;37364;46.974;18.916;2023-08-06T06:31:02;154587.84;;;16.80;100.00
51287;BME280;37364;46.974;18.916;2023-08-06T06:33:32;154560.50;;;16.69;100.00
51287;BME280;37364;46.974;18.916;2023-08-06T06:36:03;154615.16;;;16.91;100.00
51287;BME280;37364;46.974;18.916;2023-08-06T06:38:34;154629.47;;;16.96;100.00
51287;BME280;37364;46.974;18.916;2023-08-06T06:41:08;154613.88;;;16.90;100.00
51287;BME280;37364;46.974;18.916;2023-08-06T06:43:38;154620.34;;;16.93;100.00
51287;BME280;37364;46.974;18.916;2023-08-06T06:46:09;154621.66;;;16.93;100.00
51287;BME280;37364;46.974;18.916;2023-08-06T06:48:39;154630.75;;;16.97;100.00
51287;BME280;37364;46.974;18.916;2023-08-06T06:51:09;154623.00;;;16.94;100.00
51287;BME280;37364;46.974;18.916;2023-08-06T06:53:39;154616.44;;;16.91;100.00
51287;BME280;37364;46.974;18.916;2023-08-06T06:56:12;154633.38;;;16.98;100.00
51287;BME280;37364;46.974;18.916;2023-08-06T06:58:42;154654.19;;;17.06;100.00
51287;BME280;37364;46.974;18.916;2023-08-06T07:01:12;154628.19;;;16.96;100.00
51287;BME280;37364;46.974;18.916;2023-08-06T07:03:42;154624.28;;;16.94;100.00
51287;BME280;37364;46.974;18.916;2023-08-06T07:06:13;154578.72;;;16.76;100.00
51287;BME280;37364;46.974;18.916;2023-08-06T07:08:45;154586.50;;;16.79;100.00
51287;BME280;37364;46.974;18.916;2023-08-06T07:11:18;154620.34;;;16.93;100.00
51287;BME280;37364;46.974;18.916;2023-08-06T07:13:49;154590.41;;;16.81;100.00
51287;BME280;37364;46.974;18.916;2023-08-06T07:16:19;154591.75;;;16.82;100.00
51287;BME280;37364;46.974;18.916;2023-08-06T07:18:51;154616.44;;;16.91;100.00
51287;BME280;37364;46.974;18.916;2023-08-06T07:21:23;154593.09;;;16.82;100.00
51287;BME280;37364;46.974;18.916;2023-08-06T07:23:54;154577.44;;;16.76;100.00
51287;BME280;37364;46.974;18.916;2023-08-06T07:26:26;154595.66;;;16.83;100.00
51287;BME280;37364;46.974;18.916;2023-08-06T07:28:57;154602.19;;;16.86;100.00
51287;BME280;37364;46.974;18.916;2023-08-06T07:31:27;154568.31;;;16.72;100.00
51287;BME280;37364;46.974;18.916;2023-08-06T07:33:57;154543.63;;;16.63;100.00
51287;BME280;37364;46.974;18.916;2023-08-06T07:36:27;154560.50;;;16.69;100.00
51287;BME280;37364;46.974;18.916;2023-08-06T07:38:57;154515.00;;;16.51;100.00
51287;BME280;37364;46.974;18.916;2023-08-06T07:41:30;154560.50;;;16.69;100.00
51287;BME280;37364;46.974;18.916;2023-08-06T07:44:00;154554.03;;;16.67;100.00
51287;BME280;37364;46.974;18.916;2023-08-06T07:46:30;154556.59;;;16.68;100.00
51287;BME280;37364;46.974;18.916;2023-08-06T07:49:01;154560.50;;;16.69;100.00
51287;BME280;37364;46.974;18.916;2023-08-06T07:51:31;154548.81;;;16.65;100.00
51287;BME280;37364;46.974;18.916;2023-08-06T07:54:01;154547.53;;;16.64;100.00
51287;BME280;37364;46.974;18.916;2023-08-06T07:56:34;154572.19;;;16.74;100.00
51287;BME280;37364;46.974;18.916;2023-08-06T07:59:04;154580.00;;;16.77;100.00
51287;BME280;37364;46.974;18.916;2023-08-06T08:01:35;154552.72;;;16.66;100.00
51287;BME280;37364;46.974;18.916;2023-08-06T08:04:05;154561.78;;;16.70;100.00
51287;BME280;37364;46.974;18.916;2023-08-06T08:06:35;154564.41;;;16.71;100.00
51287;BME280;37364;46.974;18.916;2023-08-06T08:09:05;154591.75;;;16.82;100.00
51287;BME280;37364;46.974;18.916;2023-08-06T08:11:38;154608.69;;;16.88;100.00
51287;BME280;37364;46.974;18.916;2023-08-06T08:14:09;154626.84;;;16.95;100.00
51287;BME280;37364;46.974;18.916;2023-08-06T08:16:40;154607.38;;;16.88;100.00
51287;BME280;37364;46.974;18.916;2023-08-06T08:19:10;154615.16;;;16.91;100.00
51287;BME280;37364;46.974;18.916;2023-08-06T08:21:40;154609.97;;;16.89;100.00
51287;BME280;37364;46.974;18.916;2023-08-06T08:24:10;154594.38;;;16.83;100.00
51287;BME280;37364;46.974;18.916;2023-08-06T08:26:43;154619.06;;;16.92;100.00
51287;BME280;37364;46.974;18.916;2023-08-06T08:29:13;154570.91;;;16.73;100.00
51287;BME280;37364;46.974;18.916;2023-08-06T08:31:43;154595.66;;;16.83;100.00
51287;BME280;37364;46.974;18.916;2023-08-06T08:34:16;154570.91;;;16.73;100.00
51287;BME280;37364;46.974;18.916;2023-08-06T08:36:46;154569.63;;;16.73;100.00
51287;BME280;37364;46.974;18.916;2023-08-06T08:39:19;154585.22;;;16.79;100.00
51287;BME280;37364;46.974;18.916;2023-08-06T08:41:52;154568.31;;;16.72;100.00
51287;BME280;37364;46.974;18.916;2023-08-06T08:44:22;154559.22;;;16.69;100.00
51287;BME280;37364;46.974;18.916;2023-08-06T08:46:56;154580.00;;;16.77;100.00
51287;BME280;37364;46.974;18.916;2023-08-06T08:49:27;154581.31;;;16.77;100.00
51287;BME280;37364;46.974;18.916;2023-08-06T08:51:59;154590.41;;;16.81;100.00
51287;BME280;37364;46.974;18.916;2023-08-06T08:54:34;154624.28;;;16.94;100.00
51287;BME280;37364;46.974;18.916;2023-08-06T08:57:07;154613.88;;;16.90;100.00
51287;BME280;37364;46.974;18.916;2023-08-06T08:59:37;154637.28;;;16.99;100.00
51287;BME280;37364;46.974;18.916;2023-08-06T09:02:08;154655.47;;;17.07;100.00
51287;BME280;37364;46.974;18.916;2023-08-06T09:04:41;154646.34;;;17.03;100.00
51287;BME280;37364;46.974;18.916;2023-08-06T09:07:13;154669.78;;;17.12;100.00
51287;BME280;37364;46.974;18.916;2023-08-06T09:09:48;154651.56;;;17.05;100.00
51287;BME280;37364;46.974;18.916;2023-08-06T09:12:22;154668.50;;;17.12;100.00
51287;BME280;37364;46.974;18.916;2023-08-06T09:14:52;154671.06;;;17.13;100.00
51287;BME280;37364;46.974;18.916;2023-08-06T09:17:22;154659.38;;;17.08;100.00
51287;BME280;37364;46.974;18.916;2023-08-06T09:19:52;154695.78;;;17.23;100.00
51287;BME280;37364;46.974;18.916;2023-08-06T09:22:23;154725.69;;;17.34;100.00
51287;BME280;37364;46.974;18.916;2023-08-06T09:24:53;154754.31;;;17.46;100.00
51287;BME280;37364;46.974;18.916;2023-08-06T09:27:26;154792.06;;;17.61;100.00
51287;BME280;37364;46.974;18.916;2023-08-06T09:29:56;154807.66;;;17.67;100.00
51287;BME280;37364;46.974;18.916;2023-08-06T09:32:26;154840.16;;;17.79;100.00
51287;BME280;37364;46.974;18.916;2023-08-06T09:35:00;154866.28;;;17.90;100.00
51287;BME280;37364;46.974;18.916;2023-08-06T09:37:35;154897.47;;;18.02;100.00
51287;BME280;37364;46.974;18.916;2023-08-06T09:40:25;154861.06;;;17.88;100.00
51287;BME280;37364;46.974;18.916;2023-08-06T09:42:59;154868.84;;;17.91;100.00
51287;BME280;37364;46.974;18.916;2023-08-06T09:45:34;154849.28;;;17.83;100.00
51287;BME280;37364;46.974;18.916;2023-08-06T09:48:04;154871.47;;;17.92;100.00
51287;BME280;37364;46.974;18.916;2023-08-06T09:50:36;154851.94;;;17.84;100.00
51287;BME280;37364;46.974;18.916;2023-08-06T09:53:09;154805.03;;;17.66;100.00
51287;BME280;37364;46.974;18.916;2023-08-06T09:55:41;154820.66;;;17.72;100.00
51287;BME280;37364;46.974;18.916;2023-08-06T09:58:14;154838.88;;;17.79;100.00
51287;BME280;37364;46.974;18.916;2023-08-06T10:00:45;154816.78;;;17.70;100.00
51287;BME280;37364;46.974;18.916;2023-08-06T10:03:18;154816.78;;;17.70;100.00
51287;BME280;37364;46.974;18.916;2023-08-06T10:05:48;154824.56;;;17.73;100.00
51287;BME280;37364;46.974;18.916;2023-08-06T10:08:19;154812.88;;;17.69;100.00
51287;BME280;37364;46.974;18.916;2023-08-06T10:10:49;154803.75;;;17.65;100.00
51287;BME280;37364;46.974;18.916;2023-08-06T10:13:24;154795.97;;;17.62;100.00
51287;BME280;37364;46.974;18.916;2023-08-06T10:15:55;154837.59;;;17.78;100.00
51287;BME280;37364;46.974;18.916;2023-08-06T10:18:26;154850.63;;;17.84;100.00
51287;BME280;37364;46.974;18.916;2023-08-06T10:20:57;154833.66;;;17.77;100.00
51287;BME280;37364;46.974;18.916;2023-08-06T10:23:33;154825.91;;;17.74;100.00
51287;BME280;37364;46.974;18.916;2023-08-06T10:26:05;154820.66;;;17.72;100.00
51287;BME280;37364;46.974;18.916;2023-08-06T10:28:39;154842.78;;;17.81;100.00
51287;BME280;37364;46.974;18.916;2023-08-06T10:31:08;154842.78;;;17.81;100.00
51287;BME280;37364;46.974;18.916;2023-08-06T10:33:42;154836.31;;;17.78;100.00
51287;BME280;37364;46.974;18.916;2023-08-06T10:36:13;154853.25;;;17.85;100.00
51287;BME280;37364;46.974;18.916;2023-08-06T10:38:47;154819.34;;;17.71;100.00
51287;BME280;37364;46.974;18.916;2023-08-06T10:41:23;154819.34;;;17.71;100.00
51287;BME280;37364;46.974;18.916;2023-08-06T10:44:05;154832.38;;;17.76;100.00
51287;BME280;37364;46.974;18.916;2023-08-06T10:46:36;154846.69;;;17.82;100.00
51287;BME280;37364;46.974;18.916;2023-08-06T10:49:11;154866.28;;;17.90;100.00
51287;BME280;37364;46.974;18.916;2023-08-06T10:51:42;154926.13;;;18.13;100.00
51287;BME280;37364;46.974;18.916;2023-08-06T10:54:13;154933.91;;;18.16;100.00
51287;BME280;37364;46.974;18.916;2023-08-06T10:56:43;154931.31;;;18.15;100.00
51287;BME280;37364;46.974;18.916;2023-08-06T10:59:17;154900.06;;;18.03;100.00
51287;BME280;37364;46.974;18.916;2023-08-06T11:01:48;154907.88;;;18.06;100.00
51287;BME280;37364;46.974;18.916;2023-08-06T11:04:18;154911.81;;;18.08;100.00
51287;BME280;37364;46.974;18.916;2023-08-06T11:06:52;154922.22;;;18.12;100.00
51287;BME280;37364;46.974;18.916;2023-08-06T11:09:22;154935.25;;;18.17;100.00
51287;BME280;37364;46.974;18.916;2023-08-06T11:11:53;154923.50;;;18.12;100.00
51287;BME280;37364;46.974;18.916;2023-08-06T11:14:26;154918.28;;;18.10;100.00
51287;BME280;37364;46.974;18.916;2023-08-06T11:16:56;154936.53;;;18.17;100.00
51287;BME280;37364;46.974;18.916;2023-08-06T11:19:26;154950.84;;;18.23;100.00
51287;BME280;37364;46.974;18.916;2023-08-06T11:21:57;154970.38;;;18.31;100.00
51287;BME280;37364;46.974;18.916;2023-08-06T11:24:28;154935.25;;;18.17;100.00
51287;BME280;37364;46.974;18.916;2023-08-06T11:26:58;154952.13;;;18.24;100.00
51287;BME280;37364;46.974;18.916;2023-08-06T11:29:36;154935.25;;;18.17;100.00
51287;BME280;37364;46.974;18.916;2023-08-06T11:32:07;154923.50;;;18.12;100.00
51287;BME280;37364;46.974;18.916;2023-08-06T11:34:38;154943.03;;;18.20;100.00
51287;BME280;37364;46.974;18.916;2023-08-06T11:37:09;154956.06;;;18.25;100.00
51287;BME280;37364;46.974;18.916;2023-08-06T11:39:46;154965.16;;;18.29;100.00
51287;BME280;37364;46.974;18.916;2023-08-06T11:42:16;154962.53;;;18.28;100.00
51287;BME280;37364;46.974;18.916;2023-08-06T11:44:49;154954.72;;;18.25;100.00
51287;BME280;37364;46.974;18.916;2023-08-06T11:47:19;154957.34;;;18.26;100.00
51287;BME280;37364;46.974;18.916;2023-08-06T11:49:50;154939.09;;;18.18;100.00
51287;BME280;37364;46.974;18.916;2023-08-06T11:52:21;154956.06;;;18.25;100.00
51287;BME280;37364;46.974;18.916;2023-08-06T11:55:01;154957.34;;;18.26;100.00
51287;BME280;37364;46.974;18.916;2023-08-06T11:57:34;154924.78;;;18.13;100.00
51287;BME280;37364;46.974;18.916;2023-08-06T12:00:10;154918.28;;;18.10;100.00
51287;BME280;37364;46.974;18.916;2023-08-06T12:02:45;154905.25;;;18.05;100.00
51287;BME280;37364;46.974;18.916;2023-08-06T12:05:17;154905.25;;;18.05;100.00
51287;BME280;37364;46.974;18.916;2023-08-06T12:07:48;154863.66;;;17.89;100.00
51287;BME280;37364;46.974;18.916;2023-08-06T12:10:19;154821.97;;;17.72;100.00
51287;BME280;37364;46.974;18.916;2023-08-06T12:12:49;154818.06;;;17.71;100.00
51287;BME280;37364;46.974;18.916;2023-08-06T12:15:23;154814.16;;;17.69;100.00
51287;BME280;37364;46.974;18.916;2023-08-06T12:17:53;154831.09;;;17.76;100.00
51287;BME280;37364;46.974;18.916;2023-08-06T12:20:24;154810.25;;;17.68;100.00
51287;BME280;37364;46.974;18.916;2023-08-06T12:22:55;154827.19;;;17.74;100.00
51287;BME280;37364;46.974;18.916;2023-08-06T12:25:25;154832.38;;;17.76;100.00
51287;BME280;37364;46.974;18.916;2023-08-06T12:27:58;154842.78;;;17.81;100.00
51287;BME280;37364;46.974;18.916;2023-08-06T12:30:31;154850.63;;;17.84;100.00
51287;BME280;37364;46.974;18.916;2023-08-06T12:33:02;154863.66;;;17.89;100.00
51287;BME280;37364;46.974;18.916;2023-08-06T12:35:32;154844.06;;;17.81;100.00
51287;BME280;37364;46.974;18.916;2023-08-06T12:38:02;154855.88;;;17.86;100.00
51287;BME280;37364;46.974;18.916;2023-08-06T12:40:32;154849.28;;;17.83;100.00
51287;BME280;37364;46.974;18.916;2023-08-06T12:43:07;154867.56;;;17.90;100.00
51287;BME280;37364;46.974;18.916;2023-08-06T12:45:40;154844.06;;;17.81;100.00
51287;BME280;37364;46.974;18.916;2023-08-06T12:48:10;154841.50;;;17.80;100.00
51287;BME280;37364;46.974;18.916;2023-08-06T12:50:41;154797.25;;;17.63;100.00
51287;BME280;37364;46.974;18.916;2023-08-06T12:53:11;154785.53;;;17.58;100.00